createdAt,value
2022-09-20T00:01:56.749Z,1.40
2022-09-20T00:04:25.730Z,1.60
2022-09-20T00:06:55.148Z,1.70
2022-09-20T00:09:24.228Z,1.80
2022-09-20T00:11:53.166Z,1.63
2022-09-20T00:14:23.600Z,1.67
2022-09-20T00:16:53.026Z,1.63
2022-09-20T00:19:23.369Z,1.33
2022-09-20T00:21:52.477Z,1.73
2022-09-20T00:24:21.655Z,1.70
2022-09-20T00:26:50.489Z,1.95
2022-09-20T00:29:19.580Z,1.42
2022-09-20T00:31:50.187Z,1.20
2022-09-20T00:34:36.887Z,2.00
2022-09-20T00:37:06.117Z,2.10
2022-09-20T00:39:35.177Z,1.60
2022-09-20T00:42:04.081Z,1.77
2022-09-20T00:44:58.067Z,2.25
2022-09-20T00:47:39.288Z,1.85
2022-09-20T00:50:27.158Z,1.60
2022-09-20T00:53:01.365Z,1.60
2022-09-20T00:55:31.289Z,1.55
2022-09-20T00:58:01.149Z,1.52
2022-09-20T01:00:30.198Z,1.95
2022-09-20T01:03:06.159Z,1.42
2022-09-20T01:05:35.762Z,1.55
2022-09-20T01:08:05.352Z,1.50
2022-09-20T01:10:34.551Z,1.55
2022-09-20T01:13:04.484Z,1.30
2022-09-20T01:15:36.162Z,1.40
2022-09-20T01:18:08.543Z,2.03
2022-09-20T01:20:42.049Z,1.70
2022-09-20T01:23:27.801Z,1.38
2022-09-20T01:26:21.362Z,1.42
2022-09-20T01:29:02.649Z,1.77
2022-09-20T01:31:36.895Z,1.65
2022-09-20T01:34:12.291Z,1.60
2022-09-20T01:39:24.489Z,1.58
2022-09-20T01:41:59.587Z,1.92
2022-09-20T01:44:39.228Z,2.20
2022-09-20T01:47:28.931Z,1.50
2022-09-20T01:50:04.682Z,1.90
2022-09-20T01:53:01.975Z,1.30
2022-09-20T01:55:50.231Z,1.70
2022-09-20T01:59:12.802Z,1.38
2022-09-20T02:02:10.497Z,1.50
2022-09-20T02:05:21.009Z,1.45
2022-09-20T02:08:09.177Z,1.30
2022-09-20T02:10:58.933Z,1.48
2022-09-20T02:13:32.938Z,1.20
2022-09-20T02:16:31.561Z,0.98
2022-09-20T02:19:22.333Z,1.08
2022-09-20T02:22:05.369Z,1.00
2022-09-20T02:24:43.274Z,1.10
2022-09-20T02:27:24.223Z,1.40
2022-09-20T02:35:06.792Z,0.80
2022-09-20T02:37:59.641Z,1.02
2022-09-20T02:40:54.369Z,1.00
2022-09-20T02:43:34.166Z,1.13
2022-09-20T02:46:10.114Z,1.30
2022-09-20T02:48:49.056Z,1.10
2022-09-20T02:51:29.506Z,1.05
2022-09-20T02:54:13.898Z,1.13
2022-09-20T02:56:52.310Z,1.55
2022-09-20T02:59:32.227Z,0.88
2022-09-20T03:02:17.264Z,0.90
2022-09-20T03:05:04.692Z,1.08
2022-09-20T03:07:44.311Z,1.10
2022-09-20T03:10:22.814Z,1.13
2022-09-20T03:13:06.029Z,1.05
2022-09-20T03:15:51.020Z,1.10
2022-09-20T03:18:28.260Z,1.35
2022-09-20T03:21:06.351Z,0.77
2022-09-20T03:23:51.242Z,1.02
2022-09-20T03:26:33.269Z,1.40
2022-09-20T03:29:06.112Z,1.10
2022-09-20T03:31:53.991Z,1.60
2022-09-20T03:34:39.127Z,1.30
2022-09-20T03:37:37.637Z,0.90
2022-09-20T03:40:46.309Z,1.08
2022-09-20T03:43:28.603Z,1.20
2022-09-20T03:46:10.946Z,0.85
2022-09-20T03:49:18.142Z,1.30
2022-09-20T03:51:57.449Z,1.10
2022-09-20T03:54:59.028Z,1.27
2022-09-20T03:57:51.595Z,0.80
2022-09-20T04:00:31.411Z,1.05
2022-09-20T04:03:26.053Z,0.90
2022-09-20T04:06:08.649Z,0.90
2022-09-20T04:08:53.493Z,1.02
2022-09-20T04:11:31.546Z,0.95
2022-09-20T04:14:12.972Z,1.02
2022-09-20T04:16:50.537Z,1.20
2022-09-20T04:19:32.194Z,0.90
2022-09-20T04:22:03.485Z,1.15
2022-09-20T04:24:43.663Z,1.00
2022-09-20T04:27:18.934Z,1.48
2022-09-20T04:29:56.707Z,1.23
2022-09-20T04:32:32.021Z,1.17
2022-09-20T04:35:35.326Z,1.10
2022-09-20T04:38:09.744Z,1.02
2022-09-20T04:41:00.571Z,1.20
2022-09-20T04:44:09.038Z,1.48
2022-09-20T04:46:58.387Z,1.27
2022-09-20T04:50:11.032Z,1.45
2022-09-20T04:53:05.968Z,1.98
2022-09-20T04:55:56.994Z,1.60
2022-09-20T04:59:06.824Z,1.50
2022-09-20T05:02:20.165Z,2.13
2022-09-20T05:05:14.462Z,1.90
2022-09-20T05:08:30.706Z,2.00
2022-09-20T05:11:34.542Z,1.77
2022-09-20T05:14:36.600Z,1.80
2022-09-20T05:17:31.478Z,2.28
2022-09-20T05:20:41.862Z,1.70
2022-09-20T05:23:35.800Z,1.50
2022-09-20T05:26:24.907Z,1.73
2022-09-20T05:29:02.802Z,1.75
2022-09-20T05:31:40.456Z,1.23
2022-09-20T05:34:21.626Z,1.38
2022-09-20T05:37:00.413Z,1.48
2022-09-20T05:39:37.606Z,1.17
2022-09-20T05:42:18.327Z,1.23
2022-09-20T05:45:01.704Z,1.20
2022-09-20T05:47:50.037Z,1.17
2022-09-20T05:50:45.453Z,1.23
2022-09-20T05:53:44.541Z,1.50
2022-09-20T05:56:23.672Z,1.20
2022-09-20T05:59:17.797Z,1.15
2022-09-20T06:02:00.546Z,1.00
2022-09-20T06:04:37.149Z,1.27
2022-09-20T06:07:19.301Z,1.48
2022-09-20T06:10:20.246Z,1.63
2022-09-20T06:12:59.423Z,0.90
2022-09-20T06:15:38.262Z,1.08
2022-09-20T06:18:21.938Z,0.90
2022-09-20T06:20:59.076Z,1.02
2022-09-20T06:23:32.481Z,0.90
2022-09-20T06:26:07.794Z,0.75
2022-09-20T06:28:39.963Z,1.20
2022-09-20T06:31:10.670Z,0.82
2022-09-20T06:33:45.989Z,0.75
2022-09-20T06:39:34.433Z,0.93
2022-09-20T06:42:04.137Z,0.70
2022-09-20T06:44:33.167Z,0.90
2022-09-20T06:47:02.015Z,0.77
2022-09-20T06:49:31.043Z,0.75
2022-09-20T06:52:00.242Z,0.75
2022-09-20T06:54:31.036Z,1.00
2022-09-20T06:57:02.815Z,1.08
2022-09-20T06:59:33.216Z,1.10
2022-09-20T07:02:02.377Z,1.25
2022-09-20T07:04:32.806Z,1.00
2022-09-20T07:07:06.117Z,1.10
2022-09-20T07:09:39.324Z,1.25
2022-09-20T07:12:12.544Z,1.55
2022-09-20T07:14:43.054Z,1.00
2022-09-20T07:17:12.173Z,1.20
2022-09-20T07:19:40.973Z,1.80
2022-09-20T07:22:10.165Z,0.98
2022-09-20T07:24:41.280Z,1.08
2022-09-20T07:27:12.077Z,1.33
2022-09-20T07:29:41.454Z,1.08
2022-09-20T07:32:10.558Z,0.95
2022-09-20T07:34:39.452Z,0.93
2022-09-20T07:37:08.482Z,1.00
2022-09-20T07:39:39.180Z,1.23
2022-09-20T07:42:08.462Z,0.80
2022-09-20T07:44:40.916Z,1.00
2022-09-20T07:47:11.946Z,1.23
2022-09-20T07:49:41.079Z,1.27
2022-09-20T07:52:11.408Z,1.13
2022-09-20T07:54:42.084Z,1.05
2022-09-20T07:57:11.691Z,0.93
2022-09-20T07:59:41.142Z,1.00
2022-09-20T08:02:15.447Z,0.80
2022-09-20T08:04:44.608Z,0.77
2022-09-20T08:07:13.758Z,0.70
2022-09-20T08:09:43.959Z,0.60
2022-09-20T08:15:03.564Z,0.90
2022-09-20T08:17:35.372Z,1.17
2022-09-20T08:20:04.980Z,1.20
2022-09-20T08:22:34.896Z,0.90
2022-09-20T08:25:06.050Z,0.90
2022-09-20T08:27:36.437Z,1.17
2022-09-20T08:30:06.394Z,1.30
2022-09-20T08:32:36.527Z,0.90
2022-09-20T08:35:05.687Z,0.70
2022-09-20T08:37:35.497Z,0.50
2022-09-20T08:40:06.697Z,0.60
2022-09-20T08:42:43.792Z,0.60
2022-09-20T08:45:38.306Z,0.70
2022-09-20T08:48:14.374Z,0.50
2022-09-20T08:50:43.846Z,1.00
2022-09-20T08:53:21.502Z,1.02
2022-09-20T08:55:52.154Z,0.82
2022-09-20T08:58:21.671Z,0.50
2022-09-20T09:00:50.825Z,0.80
2022-09-20T09:03:20.115Z,0.60
2022-09-20T09:05:51.878Z,0.75
2022-09-20T09:08:23.424Z,0.50
2022-09-20T09:10:56.927Z,0.60
2022-09-20T09:13:31.276Z,0.60
2022-09-20T09:16:02.913Z,0.70
2022-09-20T09:18:40.196Z,0.68
2022-09-20T09:21:17.381Z,0.90
2022-09-20T09:23:55.987Z,0.55
2022-09-20T09:26:27.983Z,0.70
2022-09-20T09:29:15.182Z,0.50
2022-09-20T09:31:45.376Z,0.40
2022-09-20T09:34:33.468Z,0.47
2022-09-20T09:37:02.974Z,0.50
2022-09-20T09:39:35.625Z,0.50
2022-09-20T09:42:23.653Z,0.50
2022-09-20T09:44:52.441Z,0.60
2022-09-20T09:47:28.635Z,0.60
2022-09-20T09:50:02.848Z,0.80
2022-09-20T09:52:36.436Z,0.75
2022-09-20T09:55:07.479Z,0.70
2022-09-20T09:57:54.147Z,0.82
2022-09-20T10:00:25.121Z,0.70
2022-09-20T10:03:13.725Z,0.73
2022-09-20T10:05:55.215Z,0.52
2022-09-20T10:08:35.319Z,0.45
2022-09-20T10:11:15.667Z,0.50
2022-09-20T10:13:58.875Z,0.50
2022-09-20T10:16:35.144Z,0.55
2022-09-20T10:19:14.192Z,0.60
2022-09-20T10:21:52.992Z,0.52
2022-09-20T10:24:35.032Z,0.70
2022-09-20T10:27:20.611Z,0.80
2022-09-20T10:30:08.614Z,0.70
2022-09-20T10:32:51.754Z,0.50
2022-09-20T10:35:27.559Z,0.50
2022-09-20T10:38:14.560Z,0.60
2022-09-20T10:41:15.161Z,0.80
2022-09-20T10:44:02.807Z,0.80
2022-09-20T10:46:49.950Z,0.73
2022-09-20T10:49:36.323Z,0.82
2022-09-20T10:52:25.900Z,0.50
2022-09-20T10:55:11.551Z,0.60
2022-09-20T11:00:36.314Z,0.73
2022-09-20T11:03:20.580Z,0.60
2022-09-20T11:06:03.174Z,0.60
2022-09-20T11:08:37.799Z,0.50
2022-09-20T11:11:12.400Z,0.43
2022-09-20T11:13:46.821Z,0.85
2022-09-20T11:16:23.537Z,0.90
2022-09-20T11:19:00.363Z,1.10
2022-09-20T11:21:33.752Z,0.85
2022-09-20T11:24:07.727Z,0.90
2022-09-20T11:26:41.843Z,1.10
2022-09-20T11:29:21.945Z,0.80
2022-09-20T11:31:55.054Z,0.70
2022-09-20T11:34:30.908Z,0.77
2022-09-20T11:37:03.422Z,0.70
2022-09-20T11:39:40.164Z,1.00
2022-09-20T11:42:15.282Z,0.60
2022-09-20T11:44:44.901Z,0.95
2022-09-20T11:47:42.900Z,0.60
2022-09-20T11:50:44.366Z,0.52
2022-09-20T11:53:36.671Z,0.60
2022-09-20T11:56:16.712Z,1.30
2022-09-20T11:58:48.522Z,1.30
2022-09-20T12:01:28.579Z,0.82
2022-09-20T12:04:27.790Z,1.00
2022-09-20T12:07:02.442Z,0.90
2022-09-20T12:09:37.625Z,0.90
2022-09-20T12:12:24.574Z,1.00
2022-09-20T12:14:58.551Z,1.23
2022-09-20T12:18:09.000Z,1.57
2022-09-20T12:21:07.758Z,1.42
2022-09-20T12:24:03.445Z,1.17
2022-09-20T12:26:46.402Z,0.80
2022-09-20T12:29:54.679Z,0.90
2022-09-20T12:32:57.806Z,1.08
2022-09-20T12:36:17.428Z,1.10
2022-09-20T12:38:56.310Z,0.90
2022-09-20T12:41:28.859Z,1.00
2022-09-20T12:44:25.831Z,0.93
2022-09-20T12:46:58.182Z,1.10
2022-09-20T12:49:59.347Z,0.95
2022-09-20T12:52:53.689Z,1.10
2022-09-20T12:55:50.202Z,1.70
2022-09-20T13:01:29.499Z,1.83
2022-09-20T13:04:40.731Z,1.50
2022-09-20T13:07:44.215Z,2.20
2022-09-20T13:10:27.622Z,1.80
2022-09-20T13:13:05.870Z,1.73
2022-09-20T13:15:39.429Z,1.98
2022-09-20T13:18:15.582Z,3.03
2022-09-20T13:20:45.026Z,3.30
2022-09-20T13:23:21.679Z,2.75
2022-09-20T13:25:52.083Z,2.25
2022-09-20T13:28:32.375Z,1.23
2022-09-20T13:31:31.272Z,1.98
2022-09-20T13:34:20.714Z,2.30
2022-09-20T13:36:55.998Z,1.15
2022-09-20T13:39:36.881Z,1.00
2022-09-20T13:42:14.830Z,1.30
2022-09-20T13:44:44.810Z,1.20
2022-09-20T13:47:27.981Z,1.23
2022-09-20T13:50:03.083Z,1.00
2022-09-20T13:52:34.776Z,0.90
2022-09-20T13:55:29.625Z,1.10
2022-09-20T13:58:03.714Z,0.68
2022-09-20T14:00:34.847Z,0.85
2022-09-20T14:03:06.459Z,1.55
2022-09-20T14:05:35.577Z,2.47
2022-09-20T14:08:08.384Z,1.88
2022-09-20T14:13:15.132Z,1.23
2022-09-20T14:15:47.086Z,1.10
2022-09-20T14:18:21.314Z,1.17
2022-09-20T14:20:51.068Z,1.00
2022-09-20T14:23:25.807Z,1.23
2022-09-20T14:26:08.651Z,1.10
2022-09-20T14:28:37.969Z,1.02
2022-09-20T14:31:09.949Z,0.98
2022-09-20T14:33:45.286Z,2.88
2022-09-20T14:36:16.796Z,1.17
2022-09-20T14:38:48.484Z,13.77
2022-09-20T14:41:37.482Z,5.45
2022-09-20T14:44:17.668Z,1.75
2022-09-20T14:46:46.906Z,1.20
2022-09-20T14:49:33.030Z,1.48
2022-09-20T14:52:30.864Z,3.50
2022-09-20T14:55:01.962Z,3.60
2022-09-20T14:57:32.358Z,1.35
2022-09-20T15:00:14.107Z,1.10
2022-09-20T15:02:47.714Z,1.30
2022-09-20T15:05:26.283Z,1.15
2022-09-20T15:07:57.119Z,0.95
2022-09-20T15:10:27.180Z,1.30
2022-09-20T15:12:56.523Z,1.55
2022-09-20T15:15:25.429Z,1.58
2022-09-20T15:17:54.371Z,2.33
2022-09-20T15:20:25.609Z,3.38
2022-09-20T15:22:55.430Z,4.05
2022-09-20T15:25:24.764Z,3.08
2022-09-20T15:27:53.576Z,2.38
2022-09-20T15:30:22.435Z,1.50
2022-09-20T15:32:53.689Z,1.50
2022-09-20T15:35:25.344Z,1.45
2022-09-20T15:37:54.801Z,2.85
2022-09-20T15:40:24.198Z,2.55
2022-09-20T15:42:59.978Z,2.92
2022-09-20T15:45:29.341Z,2.08
2022-09-20T15:47:59.284Z,3.25
2022-09-20T15:50:30.415Z,6.40
2022-09-20T15:53:01.325Z,7.90
2022-09-20T15:55:30.305Z,6.82
2022-09-20T15:57:59.274Z,8.82
2022-09-20T16:00:29.018Z,3.30
2022-09-20T16:02:58.816Z,2.08
2022-09-20T16:05:30.682Z,2.03
2022-09-20T16:08:00.030Z,1.95
2022-09-20T16:10:29.024Z,1.75
2022-09-20T16:12:58.116Z,1.98
2022-09-20T16:15:27.027Z,2.50
2022-09-20T16:18:15.504Z,2.55
2022-09-20T16:20:46.097Z,2.05
2022-09-20T16:23:16.116Z,1.88
2022-09-20T16:25:50.501Z,2.33
2022-09-20T16:28:19.972Z,2.17
2022-09-20T16:30:57.828Z,1.65
2022-09-20T16:33:27.443Z,2.10
2022-09-20T16:35:59.597Z,2.08
2022-09-20T16:38:29.002Z,2.10
2022-09-20T16:41:00.292Z,1.65
2022-09-20T16:43:32.430Z,2.30
2022-09-20T16:46:02.166Z,2.00
2022-09-20T16:48:32.263Z,2.05
2022-09-20T16:51:02.817Z,2.58
2022-09-20T16:53:31.967Z,2.30
2022-09-20T16:56:02.035Z,2.92
2022-09-20T16:58:31.800Z,3.42
2022-09-20T17:01:05.975Z,2.72
2022-09-20T17:03:35.727Z,3.08
2022-09-20T17:06:07.103Z,3.20
2022-09-20T17:08:40.206Z,2.72
2022-09-20T17:11:11.553Z,3.50
2022-09-20T17:13:41.981Z,3.92
2022-09-20T17:16:12.664Z,3.65
2022-09-20T17:18:44.213Z,4.13
2022-09-20T17:21:16.544Z,4.88
2022-09-20T17:23:50.839Z,4.07
2022-09-20T17:26:23.189Z,4.78
2022-09-20T17:28:54.942Z,4.35
2022-09-20T17:31:28.686Z,5.32
2022-09-20T17:34:00.408Z,3.70
2022-09-20T17:36:32.726Z,3.72
2022-09-20T17:39:04.609Z,3.47
2022-09-20T17:41:36.691Z,3.00
2022-09-20T17:44:08.721Z,3.40
2022-09-20T17:46:40.406Z,3.55
2022-09-20T17:49:11.216Z,3.35
2022-09-20T17:51:43.893Z,3.50
2022-09-20T17:54:14.340Z,3.33
2022-09-20T17:56:48.808Z,3.13
2022-09-20T17:59:19.520Z,3.90
2022-09-20T18:01:50.714Z,3.30
2022-09-20T18:04:21.304Z,3.08
2022-09-20T18:06:53.772Z,3.05
2022-09-20T18:09:24.689Z,3.10
2022-09-20T18:11:56.518Z,3.10
2022-09-20T18:14:27.683Z,3.45
2022-09-20T18:17:01.037Z,3.22
2022-09-20T18:19:33.360Z,2.97
2022-09-20T18:22:04.768Z,3.65
2022-09-20T18:24:34.086Z,2.70
2022-09-20T18:27:04.779Z,3.20
2022-09-20T18:29:36.892Z,4.53
2022-09-20T18:32:07.465Z,7.78
2022-09-20T18:34:37.050Z,4.85
2022-09-20T18:37:14.752Z,3.63
2022-09-20T18:39:44.300Z,3.20
2022-09-20T18:42:13.582Z,3.10
2022-09-20T18:44:44.245Z,4.35
2022-09-20T18:47:13.489Z,3.17
2022-09-20T18:49:42.858Z,3.80
2022-09-20T18:52:14.497Z,3.20
2022-09-20T18:54:43.750Z,3.33
2022-09-20T18:57:13.496Z,3.88
2022-09-20T18:59:53.754Z,3.70
2022-09-20T19:02:51.096Z,4.00
2022-09-20T19:08:08.282Z,3.58
2022-09-20T19:10:44.968Z,3.30
2022-09-20T19:13:30.714Z,3.85
2022-09-20T19:16:18.671Z,3.20
2022-09-20T19:19:16.060Z,2.83
2022-09-20T19:21:57.818Z,2.20
2022-09-20T19:24:42.217Z,2.58
2022-09-20T19:27:13.884Z,2.70
2022-09-20T19:29:44.181Z,2.78
2022-09-20T19:32:17.402Z,2.78
2022-09-20T19:34:47.418Z,3.00
2022-09-20T19:37:28.302Z,2.88
2022-09-20T19:40:14.665Z,3.00
2022-09-20T19:42:56.920Z,3.10
2022-09-20T19:45:35.964Z,3.05
2022-09-20T19:48:13.224Z,3.17
2022-09-20T19:50:48.243Z,3.00
2022-09-20T19:53:24.198Z,3.30
2022-09-20T19:55:58.291Z,3.60
2022-09-20T19:58:28.420Z,3.47
2022-09-20T20:00:59.057Z,3.28
2022-09-20T20:03:30.272Z,3.13
2022-09-20T20:06:08.395Z,3.88
2022-09-20T20:08:42.411Z,3.90
2022-09-20T20:11:26.877Z,3.95
2022-09-20T20:14:07.811Z,3.50
2022-09-20T20:16:48.899Z,4.15
2022-09-20T20:19:47.623Z,3.55
2022-09-20T20:22:30.753Z,3.38
2022-09-20T20:25:00.218Z,3.85
2022-09-20T20:27:32.512Z,4.32
2022-09-20T20:30:05.363Z,4.70
2022-09-20T20:32:36.828Z,4.07
2022-09-20T20:35:09.428Z,2.95
2022-09-20T20:37:39.842Z,3.28
2022-09-20T20:40:12.491Z,3.58
2022-09-20T20:42:43.937Z,3.15
2022-09-20T20:45:14.023Z,2.85
2022-09-20T20:47:44.295Z,3.38
2022-09-20T20:50:13.693Z,3.15
2022-09-20T20:52:42.588Z,3.63
2022-09-20T20:55:11.706Z,2.90
2022-09-20T20:57:42.001Z,3.22
2022-09-20T21:00:14.471Z,3.17
2022-09-20T21:02:43.812Z,2.65
2022-09-20T21:05:14.339Z,3.08
2022-09-20T21:07:44.200Z,3.08
2022-09-20T21:10:13.626Z,2.25
2022-09-20T21:12:43.978Z,2.90
2022-09-20T21:15:13.094Z,2.20
2022-09-20T21:17:42.166Z,2.47
2022-09-20T21:20:11.879Z,2.47
2022-09-20T21:22:41.260Z,2.53
2022-09-20T21:25:10.593Z,2.60
2022-09-20T21:27:39.551Z,2.38
2022-09-20T21:30:11.887Z,2.50
2022-09-20T21:32:43.302Z,2.13
2022-09-20T21:35:12.211Z,2.10
2022-09-20T21:37:41.447Z,1.95
2022-09-20T21:40:11.648Z,2.30
2022-09-20T21:42:40.679Z,1.92
2022-09-20T21:45:11.539Z,1.90
2022-09-20T21:47:40.634Z,1.90
2022-09-20T21:50:10.391Z,1.98
2022-09-20T21:52:39.609Z,1.67
2022-09-20T21:55:10.862Z,1.77
2022-09-20T21:57:39.993Z,1.65
2022-09-20T22:00:11.810Z,1.50
2022-09-20T22:02:43.134Z,1.60
2022-09-20T22:05:12.525Z,1.35
2022-09-20T22:07:41.602Z,1.52
2022-09-20T22:10:10.816Z,1.38
2022-09-20T22:12:39.943Z,1.83
2022-09-20T22:15:11.701Z,1.88
2022-09-20T22:17:41.481Z,1.63
2022-09-20T22:20:11.417Z,1.30
2022-09-20T22:22:40.329Z,1.33
2022-09-20T22:25:10.288Z,1.58
2022-09-20T22:27:39.323Z,1.33
2022-09-20T22:30:09.803Z,1.30
2022-09-20T22:32:40.415Z,1.20
2022-09-20T22:35:10.196Z,1.58
2022-09-20T22:37:39.361Z,1.10
2022-09-20T22:40:08.738Z,1.20
2022-09-20T22:42:37.791Z,1.00
2022-09-20T22:45:08.033Z,1.05
2022-09-20T22:47:36.957Z,0.88
2022-09-20T22:50:08.302Z,1.10
2022-09-20T22:52:37.454Z,1.10
2022-09-20T22:55:07.256Z,1.15
2022-09-20T22:57:37.536Z,1.05
2022-09-20T23:00:07.605Z,1.50
2022-09-20T23:02:36.904Z,1.65
2022-09-20T23:05:07.780Z,1.38
2022-09-20T23:07:37.479Z,1.30
2022-09-20T23:10:07.376Z,1.40
2022-09-20T23:12:36.712Z,1.92
2022-09-20T23:15:06.969Z,1.65
2022-09-20T23:17:35.905Z,1.60
2022-09-20T23:20:07.876Z,1.20
2022-09-20T23:22:37.190Z,1.10
2022-09-20T23:25:06.700Z,1.27
2022-09-20T23:27:35.605Z,1.88
2022-09-20T23:30:05.819Z,1.35
2022-09-20T23:32:34.903Z,1.25
2022-09-20T23:35:04.029Z,1.38
2022-09-20T23:37:34.683Z,1.17
2022-09-20T23:40:04.313Z,1.17
2022-09-20T23:42:33.205Z,1.50
2022-09-20T23:45:02.486Z,1.20
2022-09-20T23:47:32.278Z,1.00
2022-09-20T23:50:01.189Z,1.60
2022-09-20T23:52:30.469Z,1.70
2022-09-20T23:55:00.915Z,1.63
2022-09-20T23:57:29.892Z,1.92
2022-09-20T23:59:59.313Z,1.58
